sensor_id;sensor_type;location;lat;lon;timestamp;P1;durP1;ratioP1;P2;durP2;ratioP2
23474;SDS011;11910;52.086;21.066;2023-08-21T00:02:20;20.67;;;18.42;;
23474;SDS011;11910;52.086;21.066;2023-08-21T00:04:45;20.02;;;17.95;;
23474;SDS011;11910;52.086;21.066;2023-08-21T00:07:11;22.75;;;19.75;;
23474;SDS011;11910;52.086;21.066;2023-08-21T00:09:37;21.17;;;19.02;;
23474;SDS011;11910;52.086;21.066;2023-08-21T00:12:06;19.38;;;17.35;;
23474;SDS011;11910;52.086;21.066;2023-08-21T00:14:32;18.70;;;16.85;;
23474;SDS011;11910;52.086;21.066;2023-08-21T00:16:57;19.15;;;17.35;;
23474;SDS011;11910;52.086;21.066;2023-08-21T00:19:23;19.35;;;17.35;;
23474;SDS011;11910;52.086;21.066;2023-08-21T00:21:49;20.75;;;18.52;;
23474;SDS011;11910;52.086;21.066;2023-08-21T00:24:14;19.23;;;17.33;;
23474;SDS011;11910;52.086;21.066;2023-08-21T00:26:40;19.45;;;17.45;;
23474;SDS011;11910;52.086;21.066;2023-08-21T00:29:06;19.13;;;17.27;;
23474;SDS011;11910;52.086;21.066;2023-08-21T00:31:32;19.83;;;17.77;;
23474;SDS011;11910;52.086;21.066;2023-08-21T00:33:57;18.92;;;17.15;;
23474;SDS011;11910;52.086;21.066;2023-08-21T00:36:23;19.58;;;17.40;;
23474;SDS011;11910;52.086;21.066;2023-08-21T00:38:55;20.35;;;18.20;;
23474;SDS011;11910;52.086;21.066;2023-08-21T00:43:46;18.58;;;16.63;;
23474;SDS011;11910;52.086;21.066;2023-08-21T00:46:11;18.00;;;16.35;;
23474;SDS011;11910;52.086;21.066;2023-08-21T00:48:38;18.65;;;16.75;;
23474;SDS011;11910;52.086;21.066;2023-08-21T00:51:04;20.77;;;18.88;;
23474;SDS011;11910;52.086;21.066;2023-08-21T00:53:31;21.33;;;18.17;;
23474;SDS011;11910;52.086;21.066;2023-08-21T00:55:58;18.88;;;16.30;;
23474;SDS011;11910;52.086;21.066;2023-08-21T00:58:24;21.05;;;17.20;;
23474;SDS011;11910;52.086;21.066;2023-08-21T01:00:49;17.67;;;15.93;;
23474;SDS011;11910;52.086;21.066;2023-08-21T01:03:17;19.55;;;17.73;;
23474;SDS011;11910;52.086;21.066;2023-08-21T01:05:43;21.20;;;17.80;;
23474;SDS011;11910;52.086;21.066;2023-08-21T01:08:25;19.45;;;17.52;;
23474;SDS011;11910;52.086;21.066;2023-08-21T01:12:03;19.27;;;17.20;;
23474;SDS011;11910;52.086;21.066;2023-08-21T01:14:51;20.60;;;18.60;;
23474;SDS011;11910;52.086;21.066;2023-08-21T01:17:20;19.90;;;17.83;;
23474;SDS011;11910;52.086;21.066;2023-08-21T01:19:50;18.42;;;16.45;;
23474;SDS011;11910;52.086;21.066;2023-08-21T01:22:18;18.90;;;16.67;;
23474;SDS011;11910;52.086;21.066;2023-08-21T01:24:43;22.10;;;16.23;;
23474;SDS011;11910;52.086;21.066;2023-08-21T01:27:09;19.27;;;17.27;;
23474;SDS011;11910;52.086;21.066;2023-08-21T01:29:46;21.48;;;19.58;;
23474;SDS011;11910;52.086;21.066;2023-08-21T01:32:40;20.77;;;18.60;;
23474;SDS011;11910;52.086;21.066;2023-08-21T01:35:07;15.95;;;14.20;;
23474;SDS011;11910;52.086;21.066;2023-08-21T01:37:39;18.40;;;14.70;;
23474;SDS011;11910;52.086;21.066;2023-08-21T01:40:06;18.67;;;16.80;;
23474;SDS011;11910;52.086;21.066;2023-08-21T01:42:32;17.95;;;16.17;;
23474;SDS011;11910;52.086;21.066;2023-08-21T01:44:57;18.08;;;16.25;;
23474;SDS011;11910;52.086;21.066;2023-08-21T01:47:33;18.40;;;16.45;;
23474;SDS011;11910;52.086;21.066;2023-08-21T01:49:58;19.17;;;17.33;;
23474;SDS011;11910;52.086;21.066;2023-08-21T01:52:24;18.85;;;16.98;;
23474;SDS011;11910;52.086;21.066;2023-08-21T01:54:59;20.90;;;17.20;;
23474;SDS011;11910;52.086;21.066;2023-08-21T01:57:25;19.00;;;17.10;;
23474;SDS011;11910;52.086;21.066;2023-08-21T01:59:53;20.30;;;18.40;;
23474;SDS011;11910;52.086;21.066;2023-08-21T02:02:18;19.50;;;17.60;;
23474;SDS011;11910;52.086;21.066;2023-08-21T02:04:44;18.13;;;16.23;;
23474;SDS011;11910;52.086;21.066;2023-08-21T02:07:09;20.08;;;18.15;;
23474;SDS011;11910;52.086;21.066;2023-08-21T02:09:35;18.42;;;16.63;;
23474;SDS011;11910;52.086;21.066;2023-08-21T02:12:01;19.25;;;17.13;;
23474;SDS011;11910;52.086;21.066;2023-08-21T02:14:26;18.02;;;16.27;;
23474;SDS011;11910;52.086;21.066;2023-08-21T02:16:55;19.85;;;17.70;;
23474;SDS011;11910;52.086;21.066;2023-08-21T02:19:21;19.42;;;17.42;;
23474;SDS011;11910;52.086;21.066;2023-08-21T02:21:46;17.40;;;15.65;;
23474;SDS011;11910;52.086;21.066;2023-08-21T02:24:12;17.85;;;16.02;;
23474;SDS011;11910;52.086;21.066;2023-08-21T02:26:40;19.90;;;17.90;;
23474;SDS011;11910;52.086;21.066;2023-08-21T02:29:08;21.00;;;18.80;;
23474;SDS011;11910;52.086;21.066;2023-08-21T02:31:33;18.23;;;16.35;;
23474;SDS011;11910;52.086;21.066;2023-08-21T02:33:59;17.17;;;15.40;;
23474;SDS011;11910;52.086;21.066;2023-08-21T02:36:25;17.23;;;15.52;;
23474;SDS011;11910;52.086;21.066;2023-08-21T02:38:51;19.65;;;17.67;;
23474;SDS011;11910;52.086;21.066;2023-08-21T02:41:16;17.90;;;15.77;;
23474;SDS011;11910;52.086;21.066;2023-08-21T02:43:43;20.10;;;16.10;;
23474;SDS011;11910;52.086;21.066;2023-08-21T02:46:09;19.05;;;17.08;;
23474;SDS011;11910;52.086;21.066;2023-08-21T02:48:34;17.02;;;15.30;;
23474;SDS011;11910;52.086;21.066;2023-08-21T02:51:00;18.63;;;14.75;;
23474;SDS011;11910;52.086;21.066;2023-08-21T02:53:27;17.65;;;15.90;;
23474;SDS011;11910;52.086;21.066;2023-08-21T02:55:53;16.88;;;15.18;;
23474;SDS011;11910;52.086;21.066;2023-08-21T02:58:19;18.27;;;16.48;;
23474;SDS011;11910;52.086;21.066;2023-08-21T03:00:45;17.65;;;15.85;;
23474;SDS011;11910;52.086;21.066;2023-08-21T03:03:10;16.45;;;14.85;;
23474;SDS011;11910;52.086;21.066;2023-08-21T03:05:36;16.13;;;13.50;;
23474;SDS011;11910;52.086;21.066;2023-08-21T03:08:02;19.13;;;17.13;;
23474;SDS011;11910;52.086;21.066;2023-08-21T03:10:28;18.42;;;16.50;;
23474;SDS011;11910;52.086;21.066;2023-08-21T03:12:58;16.90;;;15.38;;
23474;SDS011;11910;52.086;21.066;2023-08-21T03:15:24;18.42;;;14.48;;
23474;SDS011;11910;52.086;21.066;2023-08-21T03:17:49;16.35;;;14.75;;
23474;SDS011;11910;52.086;21.066;2023-08-21T03:20:15;17.55;;;14.43;;
23474;SDS011;11910;52.086;21.066;2023-08-21T03:22:42;16.88;;;15.38;;
23474;SDS011;11910;52.086;21.066;2023-08-21T03:25:08;17.13;;;15.43;;
23474;SDS011;11910;52.086;21.066;2023-08-21T03:27:34;16.20;;;14.50;;
23474;SDS011;11910;52.086;21.066;2023-08-21T03:30:04;17.63;;;15.65;;
23474;SDS011;11910;52.086;21.066;2023-08-21T03:32:31;17.50;;;15.77;;
23474;SDS011;11910;52.086;21.066;2023-08-21T03:34:58;18.58;;;16.17;;
23474;SDS011;11910;52.086;21.066;2023-08-21T03:37:23;18.25;;;15.70;;
23474;SDS011;11910;52.086;21.066;2023-08-21T03:39:49;17.30;;;15.57;;
23474;SDS011;11910;52.086;21.066;2023-08-21T03:42:15;21.60;;;17.98;;
23474;SDS011;11910;52.086;21.066;2023-08-21T03:44:40;19.73;;;14.88;;
23474;SDS011;11910;52.086;21.066;2023-08-21T03:47:06;18.35;;;14.77;;
23474;SDS011;11910;52.086;21.066;2023-08-21T03:49:31;18.15;;;15.32;;
23474;SDS011;11910;52.086;21.066;2023-08-21T03:51:57;17.48;;;15.77;;
23474;SDS011;11910;52.086;21.066;2023-08-21T03:54:23;17.27;;;15.13;;
23474;SDS011;11910;52.086;21.066;2023-08-21T03:56:48;16.30;;;14.57;;
23474;SDS011;11910;52.086;21.066;2023-08-21T03:59:14;19.92;;;15.77;;
23474;SDS011;11910;52.086;21.066;2023-08-21T04:01:39;20.98;;;16.52;;
23474;SDS011;11910;52.086;21.066;2023-08-21T04:04:05;21.52;;;17.73;;
23474;SDS011;11910;52.086;21.066;2023-08-21T04:06:30;18.60;;;16.60;;
23474;SDS011;11910;52.086;21.066;2023-08-21T04:08:56;21.17;;;17.58;;
23474;SDS011;11910;52.086;21.066;2023-08-21T04:11:21;16.52;;;14.45;;
23474;SDS011;11910;52.086;21.066;2023-08-21T04:13:47;18.40;;;15.75;;
23474;SDS011;11910;52.086;21.066;2023-08-21T04:16:13;19.90;;;17.80;;
23474;SDS011;11910;52.086;21.066;2023-08-21T04:18:38;19.63;;;16.27;;
23474;SDS011;11910;52.086;21.066;2023-08-21T04:21:04;18.13;;;16.17;;
23474;SDS011;11910;52.086;21.066;2023-08-21T04:23:30;17.92;;;15.88;;
23474;SDS011;11910;52.086;21.066;2023-08-21T04:26:02;20.67;;;16.35;;
23474;SDS011;11910;52.086;21.066;2023-08-21T04:28:31;23.83;;;18.98;;
23474;SDS011;11910;52.086;21.066;2023-08-21T04:30:58;22.60;;;19.08;;
23474;SDS011;11910;52.086;21.066;2023-08-21T04:33:25;20.88;;;18.63;;
23474;SDS011;11910;52.086;21.066;2023-08-21T04:35:51;28.30;;;22.45;;
23474;SDS011;11910;52.086;21.066;2023-08-21T04:38:17;30.08;;;26.67;;
23474;SDS011;11910;52.086;21.066;2023-08-21T04:40:42;32.63;;;29.15;;
23474;SDS011;11910;52.086;21.066;2023-08-21T04:43:08;32.25;;;28.83;;
23474;SDS011;11910;52.086;21.066;2023-08-21T04:45:33;31.67;;;27.25;;
23474;SDS011;11910;52.086;21.066;2023-08-21T04:47:59;30.52;;;27.23;;
23474;SDS011;11910;52.086;21.066;2023-08-21T04:50:25;31.58;;;28.38;;
23474;SDS011;11910;52.086;21.066;2023-08-21T04:52:51;30.40;;;27.13;;
23474;SDS011;11910;52.086;21.066;2023-08-21T04:55:17;31.92;;;28.40;;
23474;SDS011;11910;52.086;21.066;2023-08-21T04:57:42;29.38;;;26.25;;
23474;SDS011;11910;52.086;21.066;2023-08-21T05:00:08;30.98;;;26.90;;
23474;SDS011;11910;52.086;21.066;2023-08-21T05:02:34;28.85;;;25.90;;
23474;SDS011;11910;52.086;21.066;2023-08-21T05:05:00;31.58;;;26.20;;
23474;SDS011;11910;52.086;21.066;2023-08-21T05:07:25;29.58;;;26.45;;
23474;SDS011;11910;52.086;21.066;2023-08-21T05:09:52;28.42;;;24.90;;
23474;SDS011;11910;52.086;21.066;2023-08-21T05:12:17;27.60;;;24.73;;
23474;SDS011;11910;52.086;21.066;2023-08-21T05:14:43;28.13;;;25.33;;
23474;SDS011;11910;52.086;21.066;2023-08-21T05:17:09;27.27;;;24.33;;
23474;SDS011;11910;52.086;21.066;2023-08-21T05:19:34;28.67;;;25.88;;
23474;SDS011;11910;52.086;21.066;2023-08-21T05:22:00;28.27;;;24.52;;
23474;SDS011;11910;52.086;21.066;2023-08-21T05:24:25;27.42;;;24.73;;
23474;SDS011;11910;52.086;21.066;2023-08-21T05:26:51;27.35;;;24.55;;
23474;SDS011;11910;52.086;21.066;2023-08-21T05:29:16;27.52;;;24.67;;
23474;SDS011;11910;52.086;21.066;2023-08-21T05:31:42;27.95;;;24.95;;
23474;SDS011;11910;52.086;21.066;2023-08-21T05:34:08;26.88;;;24.25;;
23474;SDS011;11910;52.086;21.066;2023-08-21T05:36:33;28.42;;;25.38;;
23474;SDS011;11910;52.086;21.066;2023-08-21T05:39:01;29.05;;;24.30;;
23474;SDS011;11910;52.086;21.066;2023-08-21T05:41:30;27.90;;;24.52;;
23474;SDS011;11910;52.086;21.066;2023-08-21T05:43:56;27.02;;;24.33;;
23474;SDS011;11910;52.086;21.066;2023-08-21T05:46:22;27.35;;;24.67;;
23474;SDS011;11910;52.086;21.066;2023-08-21T05:48:48;27.02;;;24.23;;
23474;SDS011;11910;52.086;21.066;2023-08-21T05:51:16;27.42;;;24.60;;
23474;SDS011;11910;52.086;21.066;2023-08-21T05:53:41;26.88;;;23.95;;
23474;SDS011;11910;52.086;21.066;2023-08-21T05:56:07;28.88;;;23.85;;
23474;SDS011;11910;52.086;21.066;2023-08-21T05:58:35;27.35;;;23.92;;
23474;SDS011;11910;52.086;21.066;2023-08-21T06:01:01;26.50;;;23.35;;
23474;SDS011;11910;52.086;21.066;2023-08-21T06:03:27;27.40;;;24.48;;
23474;SDS011;11910;52.086;21.066;2023-08-21T06:05:52;33.45;;;25.50;;
23474;SDS011;11910;52.086;21.066;2023-08-21T06:08:18;27.10;;;24.35;;
23474;SDS011;11910;52.086;21.066;2023-08-21T06:10:44;28.65;;;25.55;;
23474;SDS011;11910;52.086;21.066;2023-08-21T06:13:09;26.73;;;23.83;;
23474;SDS011;11910;52.086;21.066;2023-08-21T06:15:35;29.63;;;25.88;;
23474;SDS011;11910;52.086;21.066;2023-08-21T06:18:00;32.33;;;25.42;;
23474;SDS011;11910;52.086;21.066;2023-08-21T06:20:26;28.00;;;25.05;;
23474;SDS011;11910;52.086;21.066;2023-08-21T06:22:52;28.45;;;24.25;;
23474;SDS011;11910;52.086;21.066;2023-08-21T06:25:17;26.52;;;23.65;;
23474;SDS011;11910;52.086;21.066;2023-08-21T06:27:44;31.92;;;24.67;;
23474;SDS011;11910;52.086;21.066;2023-08-21T06:30:10;27.80;;;24.75;;
23474;SDS011;11910;52.086;21.066;2023-08-21T06:32:36;29.35;;;25.25;;
23474;SDS011;11910;52.086;21.066;2023-08-21T06:35:02;27.55;;;24.33;;
23474;SDS011;11910;52.086;21.066;2023-08-21T06:37:27;27.10;;;23.73;;
23474;SDS011;11910;52.086;21.066;2023-08-21T06:39:53;27.35;;;23.73;;
23474;SDS011;11910;52.086;21.066;2023-08-21T06:42:19;26.80;;;23.83;;
23474;SDS011;11910;52.086;21.066;2023-08-21T06:44:44;29.50;;;23.75;;
23474;SDS011;11910;52.086;21.066;2023-08-21T06:47:10;27.20;;;24.35;;
23474;SDS011;11910;52.086;21.066;2023-08-21T06:49:36;25.38;;;22.70;;
23474;SDS011;11910;52.086;21.066;2023-08-21T06:52:01;27.88;;;24.88;;
23474;SDS011;11910;52.086;21.066;2023-08-21T06:54:28;31.65;;;25.42;;
23474;SDS011;11910;52.086;21.066;2023-08-21T06:56:54;28.13;;;25.30;;
23474;SDS011;11910;52.086;21.066;2023-08-21T06:59:19;28.52;;;25.63;;
23474;SDS011;11910;52.086;21.066;2023-08-21T07:01:45;29.13;;;26.33;;
23474;SDS011;11910;52.086;21.066;2023-08-21T07:04:11;27.70;;;24.90;;
23474;SDS011;11910;52.086;21.066;2023-08-21T07:06:36;28.88;;;25.85;;
23474;SDS011;11910;52.086;21.066;2023-08-21T07:09:02;27.70;;;24.30;;
23474;SDS011;11910;52.086;21.066;2023-08-21T07:11:28;28.20;;;25.45;;
23474;SDS011;11910;52.086;21.066;2023-08-21T07:13:53;27.85;;;24.98;;
23474;SDS011;11910;52.086;21.066;2023-08-21T07:16:20;27.55;;;24.65;;
23474;SDS011;11910;52.086;21.066;2023-08-21T07:18:51;26.75;;;24.15;;
23474;SDS011;11910;52.086;21.066;2023-08-21T07:21:17;29.05;;;26.05;;
23474;SDS011;11910;52.086;21.066;2023-08-21T07:23:42;28.58;;;25.40;;
23474;SDS011;11910;52.086;21.066;2023-08-21T07:26:08;29.45;;;26.42;;
23474;SDS011;11910;52.086;21.066;2023-08-21T07:28:34;29.17;;;26.33;;
23474;SDS011;11910;52.086;21.066;2023-08-21T07:31:00;31.23;;;27.88;;
23474;SDS011;11910;52.086;21.066;2023-08-21T07:33:26;30.35;;;27.23;;
23474;SDS011;11910;52.086;21.066;2023-08-21T07:36:04;31.13;;;27.92;;
23474;SDS011;11910;52.086;21.066;2023-08-21T07:38:31;31.48;;;28.33;;
23474;SDS011;11910;52.086;21.066;2023-08-21T07:41:03;33.17;;;29.50;;
23474;SDS011;11910;52.086;21.066;2023-08-21T07:43:35;32.55;;;29.20;;
23474;SDS011;11910;52.086;21.066;2023-08-21T07:46:06;33.38;;;29.67;;
23474;SDS011;11910;52.086;21.066;2023-08-21T07:48:33;32.85;;;29.27;;
23474;SDS011;11910;52.086;21.066;2023-08-21T07:51:00;32.95;;;29.83;;
23474;SDS011;11910;52.086;21.066;2023-08-21T07:53:27;32.47;;;29.33;;
23474;SDS011;11910;52.086;21.066;2023-08-21T07:55:52;32.15;;;29.05;;
23474;SDS011;11910;52.086;21.066;2023-08-21T07:58:19;32.22;;;29.02;;
23474;SDS011;11910;52.086;21.066;2023-08-21T08:00:45;32.25;;;28.90;;
23474;SDS011;11910;52.086;21.066;2023-08-21T08:03:10;31.35;;;28.25;;
23474;SDS011;11910;52.086;21.066;2023-08-21T08:05:39;31.65;;;28.55;;
23474;SDS011;11910;52.086;21.066;2023-08-21T08:08:05;29.42;;;26.50;;
23474;SDS011;11910;52.086;21.066;2023-08-21T08:10:30;29.55;;;26.67;;
23474;SDS011;11910;52.086;21.066;2023-08-21T08:12:56;29.02;;;25.27;;
23474;SDS011;11910;52.086;21.066;2023-08-21T08:15:22;28.88;;;25.98;;
23474;SDS011;11910;52.086;21.066;2023-08-21T08:17:48;27.30;;;24.80;;
23474;SDS011;11910;52.086;21.066;2023-08-21T08:20:18;28.23;;;25.48;;
23474;SDS011;11910;52.086;21.066;2023-08-21T08:22:44;27.58;;;24.98;;
23474;SDS011;11910;52.086;21.066;2023-08-21T08:25:09;27.92;;;25.23;;
23474;SDS011;11910;52.086;21.066;2023-08-21T08:27:35;27.50;;;24.67;;
23474;SDS011;11910;52.086;21.066;2023-08-21T08:30:01;27.65;;;24.95;;
23474;SDS011;11910;52.086;21.066;2023-08-21T08:32:28;25.20;;;22.83;;
23474;SDS011;11910;52.086;21.066;2023-08-21T08:34:54;24.10;;;21.88;;
23474;SDS011;11910;52.086;21.066;2023-08-21T08:37:19;26.23;;;23.02;;
23474;SDS011;11910;52.086;21.066;2023-08-21T08:39:46;24.27;;;22.00;;
23474;SDS011;11910;52.086;21.066;2023-08-21T08:42:12;25.63;;;23.40;;
23474;SDS011;11910;52.086;21.066;2023-08-21T08:44:40;24.52;;;22.40;;
23474;SDS011;11910;52.086;21.066;2023-08-21T08:47:07;24.38;;;21.95;;
23474;SDS011;11910;52.086;21.066;2023-08-21T08:49:34;23.95;;;21.65;;
23474;SDS011;11910;52.086;21.066;2023-08-21T08:52:00;23.20;;;20.75;;
23474;SDS011;11910;52.086;21.066;2023-08-21T08:54:26;23.45;;;21.15;;
23474;SDS011;11910;52.086;21.066;2023-08-21T08:56:52;21.48;;;19.35;;
23474;SDS011;11910;52.086;21.066;2023-08-21T08:59:18;20.23;;;18.05;;
23474;SDS011;11910;52.086;21.066;2023-08-21T09:01:44;19.20;;;17.35;;
23474;SDS011;11910;52.086;21.066;2023-08-21T09:04:10;22.40;;;16.63;;
23474;SDS011;11910;52.086;21.066;2023-08-21T09:06:36;18.23;;;16.50;;
23474;SDS011;11910;52.086;21.066;2023-08-21T09:09:02;19.70;;;17.80;;
23474;SDS011;11910;52.086;21.066;2023-08-21T09:11:29;20.48;;;18.25;;
23474;SDS011;11910;52.086;21.066;2023-08-21T09:13:55;20.10;;;16.33;;
23474;SDS011;11910;52.086;21.066;2023-08-21T09:16:21;18.63;;;16.40;;
23474;SDS011;11910;52.086;21.066;2023-08-21T09:18:50;18.55;;;16.73;;
23474;SDS011;11910;52.086;21.066;2023-08-21T09:21:17;18.20;;;16.45;;
23474;SDS011;11910;52.086;21.066;2023-08-21T09:23:46;17.80;;;15.77;;
23474;SDS011;11910;52.086;21.066;2023-08-21T09:26:22;18.85;;;16.77;;
23474;SDS011;11910;52.086;21.066;2023-08-21T09:28:48;16.42;;;14.90;;
23474;SDS011;11910;52.086;21.066;2023-08-21T09:31:15;18.60;;;16.90;;
23474;SDS011;11910;52.086;21.066;2023-08-21T09:33:41;18.40;;;16.45;;
23474;SDS011;11910;52.086;21.066;2023-08-21T09:36:09;16.63;;;14.75;;
23474;SDS011;11910;52.086;21.066;2023-08-21T09:38:36;18.05;;;16.40;;
23474;SDS011;11910;52.086;21.066;2023-08-21T09:41:04;16.83;;;15.13;;
23474;SDS011;11910;52.086;21.066;2023-08-21T09:43:37;19.17;;;17.02;;
23474;SDS011;11910;52.086;21.066;2023-08-21T09:46:08;16.95;;;14.85;;
23474;SDS011;11910;52.086;21.066;2023-08-21T09:48:36;16.98;;;14.98;;
23474;SDS011;11910;52.086;21.066;2023-08-21T09:51:03;15.75;;;14.20;;
23474;SDS011;11910;52.086;21.066;2023-08-21T09:53:32;15.50;;;14.00;;
23474;SDS011;11910;52.086;21.066;2023-08-21T09:55:58;13.00;;;11.90;;
23474;SDS011;11910;52.086;21.066;2023-08-21T09:58:28;13.43;;;12.17;;
23474;SDS011;11910;52.086;21.066;2023-08-21T10:00:56;14.32;;;12.10;;
23474;SDS011;11910;52.086;21.066;2023-08-21T10:03:36;12.82;;;11.55;;
23474;SDS011;11910;52.086;21.066;2023-08-21T10:06:08;11.73;;;10.60;;
23474;SDS011;11910;52.086;21.066;2023-08-21T10:08:38;10.80;;;9.50;;
23474;SDS011;11910;52.086;21.066;2023-08-21T10:11:19;9.55;;;7.70;;
23474;SDS011;11910;52.086;21.066;2023-08-21T10:13:45;12.55;;;8.10;;
23474;SDS011;11910;52.086;21.066;2023-08-21T10:16:12;7.63;;;6.93;;
23474;SDS011;11910;52.086;21.066;2023-08-21T10:18:42;9.32;;;6.72;;
23474;SDS011;11910;52.086;21.066;2023-08-21T10:21:16;7.10;;;6.40;;
23474;SDS011;11910;52.086;21.066;2023-08-21T10:23:50;8.40;;;7.10;;
23474;SDS011;11910;52.086;21.066;2023-08-21T10:26:33;7.28;;;6.18;;
23474;SDS011;11910;52.086;21.066;2023-08-21T10:29:04;8.57;;;5.90;;
23474;SDS011;11910;52.086;21.066;2023-08-21T10:31:39;6.88;;;5.03;;
23474;SDS011;11910;52.086;21.066;2023-08-21T10:34:09;6.05;;;5.30;;
23474;SDS011;11910;52.086;21.066;2023-08-21T10:36:39;6.00;;;5.43;;
23474;SDS011;11910;52.086;21.066;2023-08-21T10:39:13;6.53;;;6.03;;
23474;SDS011;11910;52.086;21.066;2023-08-21T10:41:40;6.30;;;5.55;;
23474;SDS011;11910;52.086;21.066;2023-08-21T10:44:06;6.13;;;5.00;;
23474;SDS011;11910;52.086;21.066;2023-08-21T10:46:51;7.28;;;5.00;;
23474;SDS011;11910;52.086;21.066;2023-08-21T10:49:18;5.97;;;5.03;;
23474;SDS011;11910;52.086;21.066;2023-08-21T10:51:43;6.72;;;4.95;;
23474;SDS011;11910;52.086;21.066;2023-08-21T10:54:15;4.88;;;4.38;;
23474;SDS011;11910;52.086;21.066;2023-08-21T10:56:41;5.60;;;4.82;;
23474;SDS011;11910;52.086;21.066;2023-08-21T10:59:07;5.75;;;4.80;;
23474;SDS011;11910;52.086;21.066;2023-08-21T11:01:44;6.30;;;5.28;;
23474;SDS011;11910;52.086;21.066;2023-08-21T11:04:12;5.20;;;4.80;;
23474;SDS011;11910;52.086;21.066;2023-08-21T11:06:50;5.60;;;5.20;;
23474;SDS011;11910;52.086;21.066;2023-08-21T11:09:16;9.05;;;5.40;;
23474;SDS011;11910;52.086;21.066;2023-08-21T11:11:43;7.15;;;5.10;;
23474;SDS011;11910;52.086;21.066;2023-08-21T11:14:08;5.88;;;5.38;;
23474;SDS011;11910;52.086;21.066;2023-08-21T11:16:34;9.55;;;5.32;;
23474;SDS011;11910;52.086;21.066;2023-08-21T11:19:03;11.35;;;5.32;;
23474;SDS011;11910;52.086;21.066;2023-08-21T11:21:29;6.13;;;5.25;;
23474;SDS011;11910;52.086;21.066;2023-08-21T11:23:55;6.00;;;5.40;;
23474;SDS011;11910;52.086;21.066;2023-08-21T11:26:21;5.47;;;4.72;;
23474;SDS011;11910;52.086;21.066;2023-08-21T11:28:49;6.13;;;5.47;;
23474;SDS011;11910;52.086;21.066;2023-08-21T11:31:15;6.57;;;5.20;;
23474;SDS011;11910;52.086;21.066;2023-08-21T11:33:41;7.60;;;5.30;;
23474;SDS011;11910;52.086;21.066;2023-08-21T11:36:16;5.85;;;5.20;;
23474;SDS011;11910;52.086;21.066;2023-08-21T11:38:42;5.05;;;4.53;;
23474;SDS011;11910;52.086;21.066;2023-08-21T11:41:24;7.88;;;4.93;;
23474;SDS011;11910;52.086;21.066;2023-08-21T11:43:50;7.18;;;5.00;;
23474;SDS011;11910;52.086;21.066;2023-08-21T11:46:16;5.88;;;5.10;;
23474;SDS011;11910;52.086;21.066;2023-08-21T11:48:46;5.78;;;4.90;;
23474;SDS011;11910;52.086;21.066;2023-08-21T11:51:12;6.90;;;4.57;;
23474;SDS011;11910;52.086;21.066;2023-08-21T11:53:38;6.03;;;5.43;;
23474;SDS011;11910;52.086;21.066;2023-08-21T11:56:09;6.43;;;4.80;;
23474;SDS011;11910;52.086;21.066;2023-08-21T11:58:39;5.30;;;4.80;;
23474;SDS011;11910;52.086;21.066;2023-08-21T12:01:05;5.38;;;4.50;;
23474;SDS011;11910;52.086;21.066;2023-08-21T12:03:36;5.20;;;4.70;;
23474;SDS011;11910;52.086;21.066;2023-08-21T12:06:09;6.05;;;4.60;;
23474;SDS011;11910;52.086;21.066;2023-08-21T12:11:29;4.65;;;4.10;;
23474;SDS011;11910;52.086;21.066;2023-08-21T12:13:55;6.47;;;4.45;;
23474;SDS011;11910;52.086;21.066;2023-08-21T12:16:20;5.70;;;4.60;;
23474;SDS011;11910;52.086;21.066;2023-08-21T12:18:46;4.93;;;4.43;;
23474;SDS011;11910;52.086;21.066;2023-08-21T12:21:11;5.07;;;4.10;;
23474;SDS011;11910;52.086;21.066;2023-08-21T12:23:37;5.93;;;4.75;;
23474;SDS011;11910;52.086;21.066;2023-08-21T12:26:03;9.32;;;4.75;;
23474;SDS011;11910;52.086;21.066;2023-08-21T12:28:31;6.30;;;4.43;;
23474;SDS011;11910;52.086;21.066;2023-08-21T12:30:57;8.45;;;5.05;;
23474;SDS011;11910;52.086;21.066;2023-08-21T12:33:22;5.80;;;4.85;;
23474;SDS011;11910;52.086;21.066;2023-08-21T12:35:48;4.95;;;4.40;;
23474;SDS011;11910;52.086;21.066;2023-08-21T12:38:16;5.65;;;4.35;;
23474;SDS011;11910;52.086;21.066;2023-08-21T12:40:42;7.93;;;4.50;;
23474;SDS011;11910;52.086;21.066;2023-08-21T12:43:07;4.78;;;3.90;;
23474;SDS011;11910;52.086;21.066;2023-08-21T12:45:33;8.68;;;3.88;;
23474;SDS011;11910;52.086;21.066;2023-08-21T12:48:00;5.40;;;3.72;;
23474;SDS011;11910;52.086;21.066;2023-08-21T12:50:28;4.40;;;3.40;;
23474;SDS011;11910;52.086;21.066;2023-08-21T12:52:54;3.90;;;3.50;;
23474;SDS011;11910;52.086;21.066;2023-08-21T12:55:20;5.90;;;3.38;;
23474;SDS011;11910;52.086;21.066;2023-08-21T12:57:45;4.57;;;3.22;;
23474;SDS011;11910;52.086;21.066;2023-08-21T13:00:11;5.32;;;3.53;;
23474;SDS011;11910;52.086;21.066;2023-08-21T13:02:37;4.30;;;3.28;;
23474;SDS011;11910;52.086;21.066;2023-08-21T13:05:03;5.60;;;3.40;;
23474;SDS011;11910;52.086;21.066;2023-08-21T13:07:31;4.55;;;3.60;;
23474;SDS011;11910;52.086;21.066;2023-08-21T13:09:57;5.80;;;3.78;;
23474;SDS011;11910;52.086;21.066;2023-08-21T13:12:24;5.88;;;3.15;;
23474;SDS011;11910;52.086;21.066;2023-08-21T13:14:50;5.13;;;3.55;;
23474;SDS011;11910;52.086;21.066;2023-08-21T13:17:15;3.53;;;3.08;;
23474;SDS011;11910;52.086;21.066;2023-08-21T13:19:41;3.97;;;2.95;;
23474;SDS011;11910;52.086;21.066;2023-08-21T13:22:16;3.20;;;2.90;;
23474;SDS011;11910;52.086;21.066;2023-08-21T13:24:44;9.18;;;3.08;;
23474;SDS011;11910;52.086;21.066;2023-08-21T13:27:16;5.55;;;3.30;;
23474;SDS011;11910;52.086;21.066;2023-08-21T13:29:50;3.38;;;2.80;;
23474;SDS011;11910;52.086;21.066;2023-08-21T13:32:15;8.10;;;3.35;;
23474;SDS011;11910;52.086;21.066;2023-08-21T13:34:41;3.58;;;2.60;;
23474;SDS011;11910;52.086;21.066;2023-08-21T13:37:07;3.15;;;2.85;;
23474;SDS011;11910;52.086;21.066;2023-08-21T13:39:35;5.15;;;2.80;;
23474;SDS011;11910;52.086;21.066;2023-08-21T13:42:01;3.90;;;2.60;;
23474;SDS011;11910;52.086;21.066;2023-08-21T13:44:26;6.00;;;2.78;;
23474;SDS011;11910;52.086;21.066;2023-08-21T13:46:52;5.70;;;2.70;;
23474;SDS011;11910;52.086;21.066;2023-08-21T13:49:18;5.53;;;2.80;;
23474;SDS011;11910;52.086;21.066;2023-08-21T13:51:43;6.55;;;3.30;;
23474;SDS011;11910;52.086;21.066;2023-08-21T13:54:09;4.32;;;2.80;;
23474;SDS011;11910;52.086;21.066;2023-08-21T13:56:35;2.97;;;2.60;;
23474;SDS011;11910;52.086;21.066;2023-08-21T13:59:00;8.45;;;2.80;;
23474;SDS011;11910;52.086;21.066;2023-08-21T14:01:26;5.93;;;2.90;;
23474;SDS011;11910;52.086;21.066;2023-08-21T14:03:51;5.45;;;2.63;;
23474;SDS011;11910;52.086;21.066;2023-08-21T14:06:23;4.53;;;2.50;;
23474;SDS011;11910;52.086;21.066;2023-08-21T14:08:49;3.78;;;2.60;;
23474;SDS011;11910;52.086;21.066;2023-08-21T14:11:15;3.60;;;2.70;;
23474;SDS011;11910;52.086;21.066;2023-08-21T14:13:40;6.18;;;2.83;;
23474;SDS011;11910;52.086;21.066;2023-08-21T14:16:09;3.63;;;2.67;;
23474;SDS011;11910;52.086;21.066;2023-08-21T14:18:35;5.47;;;3.00;;
23474;SDS011;11910;52.086;21.066;2023-08-21T14:21:00;7.70;;;2.97;;
23474;SDS011;11910;52.086;21.066;2023-08-21T14:23:26;5.40;;;2.80;;